createdAt,value
2023-01-08T00:01:17.541Z,-21.84
2023-01-08T00:03:44.881Z,-21.85
2023-01-08T00:06:15.314Z,-21.89
2023-01-08T00:08:42.918Z,-21.91
2023-01-08T00:11:10.575Z,-21.97
2023-01-08T00:13:37.816Z,-21.96
2023-01-08T00:16:06.586Z,-22.17
2023-01-08T00:18:34.025Z,-22.40
2023-01-08T00:21:01.701Z,-22.47
2023-01-08T00:23:28.948Z,-22.31
2023-01-08T00:25:55.967Z,-22.15
2023-01-08T00:28:23.037Z,-22.08
2023-01-08T00:30:50.270Z,-22.06
2023-01-08T00:33:17.533Z,-22.15
2023-01-08T00:35:44.864Z,-22.23
2023-01-08T00:38:12.077Z,-22.47
2023-01-08T00:40:40.540Z,-22.63
2023-01-08T00:43:07.916Z,-22.79
2023-01-08T00:45:35.120Z,-22.89
2023-01-08T00:48:02.110Z,-23.03
2023-01-08T00:50:29.187Z,-23.07
2023-01-08T00:52:56.244Z,-23.14
2023-01-08T00:55:23.286Z,-23.12
2023-01-08T00:57:50.416Z,-23.04
2023-01-08T01:00:17.940Z,-22.73
2023-01-08T01:02:45.921Z,-22.51
2023-01-08T01:05:15.806Z,-22.37
2023-01-08T01:07:43.765Z,-22.24
2023-01-08T01:10:12.171Z,-22.10
2023-01-08T01:12:39.632Z,-22.01
2023-01-08T01:15:08.817Z,-22.00
2023-01-08T01:17:38.745Z,-21.91
2023-01-08T01:20:07.254Z,-21.75
2023-01-08T01:22:34.500Z,-21.68
2023-01-08T01:25:01.629Z,-21.53
2023-01-08T01:27:30.388Z,-21.43
2023-01-08T01:29:57.799Z,-21.44
2023-01-08T01:32:25.577Z,-21.38
2023-01-08T01:34:52.776Z,-21.34
2023-01-08T01:37:21.187Z,-21.30
2023-01-08T01:39:48.102Z,-21.17
2023-01-08T01:42:36.545Z,-21.14
2023-01-08T01:45:11.964Z,-21.10
2023-01-08T01:47:40.784Z,-21.17
2023-01-08T01:50:18.504Z,-20.99
2023-01-08T01:53:02.198Z,-20.96
2023-01-08T01:55:30.364Z,-20.98
2023-01-08T01:58:21.119Z,-20.96
2023-01-08T02:00:48.837Z,-20.99
2023-01-08T02:03:17.035Z,-21.00
2023-01-08T02:06:11.650Z,-21.01
2023-01-08T02:09:11.958Z,-21.06
2023-01-08T02:11:46.533Z,-21.18
2023-01-08T02:14:18.895Z,-21.16
2023-01-08T02:16:58.475Z,-21.13
2023-01-08T02:19:34.711Z,-21.09
2023-01-08T02:22:43.672Z,-21.08
2023-01-08T02:25:37.320Z,-21.13
2023-01-08T02:28:09.280Z,-21.16
2023-01-08T02:30:36.685Z,-21.15
2023-01-08T02:33:03.897Z,-21.17
2023-01-08T02:35:38.456Z,-21.18
2023-01-08T02:38:05.812Z,-21.18
2023-01-08T02:40:57.307Z,-21.16
2023-01-08T02:43:33.056Z,-21.17
2023-01-08T02:46:06.080Z,-21.22
2023-01-08T02:48:46.733Z,-21.14
2023-01-08T02:51:22.668Z,-21.12
2023-01-08T02:53:51.835Z,-21.15
2023-01-08T02:56:23.220Z,-21.20
2023-01-08T02:58:50.879Z,-21.16
2023-01-08T03:01:18.439Z,-21.16
2023-01-08T03:03:49.898Z,-21.16
2023-01-08T03:06:19.187Z,-21.11
2023-01-08T03:08:49.339Z,-21.12
2023-01-08T03:11:19.424Z,-21.07
2023-01-08T03:14:10.017Z,-21.05
2023-01-08T03:16:43.036Z,-21.11
2023-01-08T03:19:15.857Z,-21.16
2023-01-08T03:21:43.689Z,-21.37
2023-01-08T03:24:13.743Z,-21.47
2023-01-08T03:26:42.418Z,-21.54
2023-01-08T03:29:12.917Z,-21.54
2023-01-08T03:31:40.777Z,-21.62
2023-01-08T03:34:08.018Z,-21.69
2023-01-08T03:36:36.211Z,-21.79
2023-01-08T03:39:10.716Z,-21.85
2023-01-08T03:41:37.814Z,-21.94
2023-01-08T03:44:05.045Z,-21.93
2023-01-08T03:46:34.893Z,-21.95
2023-01-08T03:49:02.789Z,-22.01
2023-01-08T03:51:29.736Z,-21.98
2023-01-08T03:53:58.720Z,-22.00
2023-01-08T03:56:26.243Z,-22.03
2023-01-08T03:58:53.264Z,-21.99
2023-01-08T04:01:20.383Z,-22.01
2023-01-08T04:03:47.568Z,-21.92
2023-01-08T04:06:14.660Z,-21.84
2023-01-08T04:08:41.642Z,-21.79
2023-01-08T04:11:08.806Z,-21.67
2023-01-08T04:13:35.774Z,-21.65
2023-01-08T04:16:02.864Z,-21.72
2023-01-08T04:18:30.066Z,-21.75
2023-01-08T04:20:57.015Z,-21.70
2023-01-08T04:23:23.978Z,-21.65
2023-01-08T04:25:51.022Z,-21.61
2023-01-08T04:28:18.075Z,-21.57
2023-01-08T04:30:45.116Z,-21.52
2023-01-08T04:33:12.466Z,-21.53
2023-01-08T04:35:39.480Z,-21.64
2023-01-08T04:38:06.419Z,-21.78
2023-01-08T04:40:34.443Z,-21.89
2023-01-08T04:43:01.465Z,-21.89
2023-01-08T04:45:28.522Z,-21.91
2023-01-08T04:47:57.069Z,-21.91
2023-01-08T04:50:24.039Z,-21.95
2023-01-08T04:52:50.968Z,-21.93
2023-01-08T04:55:18.141Z,-21.89
2023-01-08T04:57:45.269Z,-21.96
2023-01-08T05:00:13.034Z,-22.11
2023-01-08T05:02:48.251Z,-22.26
2023-01-08T05:05:15.767Z,-22.39
2023-01-08T05:07:42.865Z,-22.48
2023-01-08T05:10:11.660Z,-22.55
2023-01-08T05:12:39.011Z,-22.60
2023-01-08T05:15:06.464Z,-22.68
2023-01-08T05:17:34.181Z,-22.72
2023-01-08T05:20:01.746Z,-22.84
2023-01-08T05:22:30.416Z,-22.80
2023-01-08T05:24:57.439Z,-22.71
2023-01-08T05:27:29.632Z,-22.68
2023-01-08T05:29:56.730Z,-22.65
2023-01-08T05:32:23.794Z,-22.57
2023-01-08T05:34:50.780Z,-22.49
2023-01-08T05:37:17.823Z,-22.54
2023-01-08T05:39:44.691Z,-22.62
2023-01-08T05:45:16.983Z,-22.71
2023-01-08T05:53:47.547Z,-22.73
2023-01-08T05:56:14.721Z,-22.73
2023-01-08T05:58:42.909Z,-22.75
2023-01-08T06:01:13.089Z,-22.81
2023-01-08T06:03:45.350Z,-22.90
2023-01-08T06:06:13.490Z,-22.93
2023-01-08T06:08:40.633Z,-22.89
2023-01-08T06:11:08.770Z,-22.88
2023-01-08T06:13:38.128Z,-22.77
2023-01-08T06:16:05.738Z,-22.79
2023-01-08T06:18:32.798Z,-22.80
2023-01-08T06:21:17.159Z,-22.80
2023-01-08T06:23:47.129Z,-22.94
2023-01-08T06:26:14.303Z,-22.78
2023-01-08T06:28:41.256Z,-22.90
2023-01-08T06:31:08.260Z,-22.81
2023-01-08T06:33:35.501Z,-22.79
2023-01-08T06:36:54.332Z,-22.69
2023-01-08T06:39:21.506Z,-22.70
2023-01-08T06:41:48.500Z,-22.53
2023-01-08T06:44:15.507Z,-22.39
2023-01-08T06:46:44.268Z,-22.33
2023-01-08T06:49:11.476Z,-22.21
2023-01-08T06:51:39.094Z,-22.14
2023-01-08T06:56:54.625Z,-21.98
2023-01-08T06:59:32.294Z,-21.91
2023-01-08T07:04:42.834Z,-21.82
2023-01-08T07:07:15.146Z,-21.61
2023-01-08T07:09:45.923Z,-21.48
2023-01-08T07:12:15.818Z,-21.33
2023-01-08T07:14:42.903Z,-21.23
2023-01-08T07:17:10.047Z,-21.12
2023-01-08T07:19:37.776Z,-21.21
2023-01-08T07:22:05.497Z,-20.99
2023-01-08T07:24:32.604Z,-20.99
2023-01-08T07:27:04.628Z,-20.86
2023-01-08T07:29:31.973Z,-20.72
2023-01-08T07:31:59.374Z,-20.28
2023-01-08T07:34:27.459Z,-20.07
2023-01-08T07:36:54.484Z,-19.79
2023-01-08T07:39:21.551Z,-19.84
2023-01-08T07:41:48.931Z,-20.17
2023-01-08T07:44:19.576Z,-19.88
2023-01-08T07:46:47.171Z,-19.29
2023-01-08T07:51:59.352Z,-18.75
2023-01-08T07:54:28.279Z,-18.75
2023-01-08T07:57:20.998Z,-18.33
2023-01-08T07:59:47.971Z,-18.26
2023-01-08T08:02:15.230Z,-18.10
2023-01-08T08:04:42.299Z,-17.72
2023-01-08T08:07:09.327Z,-17.82
2023-01-08T08:09:36.371Z,-17.85
2023-01-08T08:12:03.587Z,-17.64
2023-01-08T08:14:30.618Z,-17.22
2023-01-08T08:16:57.677Z,-17.01
2023-01-08T08:19:24.627Z,-16.71
2023-01-08T08:21:51.570Z,-16.34
2023-01-08T08:24:18.643Z,-16.17
2023-01-08T08:26:45.810Z,-15.68
2023-01-08T08:29:12.845Z,-15.45
2023-01-08T08:31:40.632Z,-15.60
2023-01-08T08:34:11.933Z,-15.35
2023-01-08T08:36:43.543Z,-14.91
2023-01-08T08:39:10.520Z,-15.15
2023-01-08T08:41:37.517Z,-15.82
2023-01-08T08:44:04.716Z,-16.73
2023-01-08T08:46:31.944Z,-16.73
2023-01-08T08:48:58.912Z,-17.05
2023-01-08T08:51:26.030Z,-17.26
2023-01-08T08:53:53.082Z,-17.33
2023-01-08T08:56:20.015Z,-17.39
2023-01-08T08:58:46.953Z,-17.54
2023-01-08T09:01:13.996Z,-17.44
2023-01-08T09:03:41.123Z,-17.36
2023-01-08T09:06:14.131Z,-17.47
2023-01-08T09:08:41.419Z,-17.36
2023-01-08T09:11:08.387Z,-16.84
2023-01-08T09:13:37.086Z,-15.74
2023-01-08T09:16:05.092Z,-15.46
2023-01-08T09:18:32.114Z,-15.97
2023-01-08T09:20:59.121Z,-16.58
2023-01-08T09:23:26.549Z,-16.94
2023-01-08T09:26:00.747Z,-15.93
2023-01-08T09:28:28.306Z,-13.85
2023-01-08T09:30:57.867Z,-13.74
2023-01-08T09:33:24.933Z,-14.44
2023-01-08T09:35:52.022Z,-14.95
2023-01-08T09:38:19.399Z,-15.12
2023-01-08T09:40:52.509Z,-13.21
2023-01-08T09:43:21.593Z,-11.41
2023-01-08T09:45:55.224Z,-10.97
2023-01-08T09:48:26.784Z,-10.90
2023-01-08T09:50:53.960Z,-11.37
2023-01-08T09:53:21.355Z,-12.50
2023-01-08T09:56:13.009Z,-13.72
2023-01-08T09:58:42.965Z,-14.34
2023-01-08T10:01:18.980Z,-14.77
2023-01-08T10:03:46.206Z,-14.99
2023-01-08T10:06:19.746Z,-15.21
2023-01-08T10:08:49.344Z,-15.32
2023-01-08T10:13:59.773Z,-15.73
2023-01-08T10:22:14.035Z,-15.85
2023-01-08T10:24:41.277Z,-15.59
2023-01-08T10:27:16.707Z,-15.46
2023-01-08T10:32:34.867Z,-15.61
2023-01-08T10:35:09.217Z,-15.65
2023-01-08T10:37:43.997Z,-15.64
2023-01-08T10:40:32.452Z,-15.71
2023-01-08T10:43:09.511Z,-15.79
2023-01-08T10:45:37.322Z,-15.76
2023-01-08T10:48:06.131Z,-15.95
2023-01-08T10:50:34.972Z,-16.01
2023-01-08T10:53:09.715Z,-15.49
2023-01-08T10:55:39.722Z,-14.26
2023-01-08T10:58:10.048Z,-14.01
2023-01-08T11:00:37.869Z,-13.93
2023-01-08T11:03:08.072Z,-14.25
2023-01-08T11:05:43.410Z,-14.66
2023-01-08T11:08:19.852Z,-15.07
2023-01-08T11:11:02.681Z,-15.19
2023-01-08T11:16:18.418Z,-15.56
2023-01-08T11:18:50.361Z,-14.97
2023-01-08T11:21:24.519Z,-14.55
2023-01-08T11:24:04.717Z,-14.58
2023-01-08T11:26:32.532Z,-13.60
2023-01-08T11:29:01.644Z,-11.85
2023-01-08T11:31:41.575Z,-12.60
2023-01-08T11:34:47.762Z,-13.76
2023-01-08T11:37:33.069Z,-14.49
2023-01-08T11:40:00.054Z,-14.91
2023-01-08T11:42:27.063Z,-15.26
2023-01-08T11:45:18.938Z,-15.65
2023-01-08T11:47:57.039Z,-16.06
2023-01-08T11:51:02.254Z,-16.25
2023-01-08T11:53:59.396Z,-16.41
2023-01-08T11:56:32.436Z,-16.41
2023-01-08T11:59:05.346Z,-16.32
2023-01-08T12:01:45.502Z,-16.23
2023-01-08T12:04:27.657Z,-16.09
2023-01-08T12:07:21.577Z,-16.12
2023-01-08T12:10:03.867Z,-16.23
2023-01-08T12:12:46.175Z,-16.25
2023-01-08T12:15:37.190Z,-16.18
2023-01-08T12:18:20.216Z,-16.19
2023-01-08T12:20:56.220Z,-16.19
2023-01-08T12:23:30.499Z,-16.27
2023-01-08T12:26:21.058Z,-16.31
2023-01-08T12:29:11.603Z,-16.43
2023-01-08T12:32:02.603Z,-16.43
2023-01-08T12:34:30.782Z,-16.38
2023-01-08T12:37:07.657Z,-16.36
2023-01-08T12:39:47.018Z,-16.41
2023-01-08T12:42:17.679Z,-16.53
2023-01-08T12:44:46.292Z,-16.61
2023-01-08T12:47:21.781Z,-16.49
2023-01-08T12:50:22.377Z,-16.48
2023-01-08T12:52:57.344Z,-16.50
2023-01-08T12:55:47.421Z,-16.56
2023-01-08T13:01:36.411Z,-16.71
2023-01-08T13:04:05.248Z,-16.45
2023-01-08T13:06:32.371Z,-15.81
2023-01-08T13:09:01.522Z,-15.80
2023-01-08T13:11:31.899Z,-16.03
2023-01-08T13:14:09.662Z,-16.17
2023-01-08T13:16:42.413Z,-16.35
2023-01-08T13:19:27.694Z,-16.44
2023-01-08T13:21:57.107Z,-16.49
2023-01-08T13:24:34.983Z,-16.63
2023-01-08T13:27:30.454Z,-16.81
2023-01-08T13:29:58.816Z,-16.93
2023-01-08T13:32:53.747Z,-16.88
2023-01-08T13:35:26.466Z,-16.96
2023-01-08T13:38:12.663Z,-17.00
2023-01-08T13:40:42.841Z,-16.99
2023-01-08T13:43:26.068Z,-17.03
2023-01-08T13:49:04.426Z,-17.18
2023-01-08T13:54:36.610Z,-17.20
2023-01-08T13:57:25.322Z,-17.21
2023-01-08T13:59:56.776Z,-17.14
2023-01-08T14:02:29.845Z,-17.21
2023-01-08T14:14:27.557Z,-17.46
2023-01-08T14:17:00.258Z,-17.51
2023-01-08T14:19:29.563Z,-17.42
2023-01-08T14:22:04.647Z,-17.36
2023-01-08T14:24:39.251Z,-17.31
2023-01-08T14:30:17.299Z,-17.35
2023-01-08T14:32:46.818Z,-17.30
2023-01-08T14:35:18.364Z,-17.45
2023-01-08T14:37:51.707Z,-17.32
2023-01-08T14:40:31.188Z,-17.31
2023-01-08T14:43:35.984Z,-17.11
2023-01-08T14:48:46.357Z,-17.09
2023-01-08T14:51:40.629Z,-17.23
2023-01-08T14:54:34.975Z,-17.14
2023-01-08T15:00:03.687Z,-17.06
2023-01-08T15:05:55.557Z,-17.10
2023-01-08T15:11:22.153Z,-16.94
2023-01-08T15:19:30.941Z,-17.05
2023-01-08T15:25:09.131Z,-16.89
2023-01-08T15:34:59.656Z,-16.96
2023-01-08T15:37:54.741Z,-16.91
2023-01-08T15:40:32.817Z,-16.89
2023-01-08T15:43:12.003Z,-16.91
2023-01-08T15:45:42.754Z,-16.93
2023-01-08T15:48:15.260Z,-16.99
2023-01-08T15:50:43.931Z,-16.91
2023-01-08T15:53:19.530Z,-16.92
2023-01-08T15:55:48.820Z,-16.97
2023-01-08T15:58:18.818Z,-16.92
2023-01-08T16:01:10.707Z,-16.85
2023-01-08T16:03:40.786Z,-16.84
2023-01-08T16:08:52.042Z,-16.84
2023-01-08T16:11:20.072Z,-16.96
2023-01-08T16:13:47.446Z,-16.84
2023-01-08T16:16:26.599Z,-17.00
2023-01-08T16:18:53.994Z,-16.91
2023-01-08T16:21:21.578Z,-16.89
2023-01-08T16:23:55.374Z,-16.73
2023-01-08T16:26:23.067Z,-16.76
2023-01-08T16:28:56.876Z,-16.69
2023-01-08T16:31:31.619Z,-16.68
2023-01-08T16:34:05.231Z,-16.74
2023-01-08T16:36:33.753Z,-16.72
2023-01-08T16:39:04.737Z,-16.71
2023-01-08T16:44:26.834Z,-16.89
2023-01-08T16:46:56.133Z,-16.92
2023-01-08T16:52:24.365Z,-17.13
2023-01-08T16:54:51.416Z,-17.19
2023-01-08T16:57:21.084Z,-17.14
2023-01-08T16:59:48.095Z,-17.10
2023-01-08T17:02:15.283Z,-17.13
2023-01-08T17:04:42.412Z,-17.18
2023-01-08T17:07:09.465Z,-17.24
2023-01-08T17:09:36.400Z,-17.34
2023-01-08T17:12:04.343Z,-17.36
2023-01-08T17:14:31.531Z,-17.49
2023-01-08T17:16:59.786Z,-17.57
2023-01-08T17:19:32.587Z,-17.60
2023-01-08T17:21:59.826Z,-17.68
2023-01-08T17:24:26.872Z,-17.74
2023-01-08T17:26:53.846Z,-17.82
2023-01-08T17:29:22.005Z,-17.86
2023-01-08T17:31:51.185Z,-17.89
2023-01-08T17:34:23.129Z,-18.00
2023-01-08T17:36:50.170Z,-18.03
2023-01-08T17:39:17.190Z,-18.05
2023-01-08T17:42:02.798Z,-18.10
2023-01-08T17:44:31.347Z,-18.17
2023-01-08T17:46:58.811Z,-18.23
2023-01-08T17:49:26.071Z,-18.24
2023-01-08T17:51:55.175Z,-18.29
2023-01-08T17:54:23.950Z,-18.41
2023-01-08T17:56:51.382Z,-18.25
2023-01-08T17:59:23.348Z,-18.25
2023-01-08T18:01:58.066Z,-18.32
2023-01-08T18:04:25.955Z,-18.48
2023-01-08T18:06:58.180Z,-18.52
2023-01-08T18:09:28.165Z,-18.58
2023-01-08T18:11:55.959Z,-18.68
2023-01-08T18:14:23.225Z,-18.64
2023-01-08T18:16:59.107Z,-18.67
2023-01-08T18:19:32.998Z,-18.73
2023-01-08T18:22:03.358Z,-18.76
2023-01-08T18:24:33.568Z,-18.67
2023-01-08T18:27:01.095Z,-18.67
2023-01-08T18:29:28.323Z,-18.59
2023-01-08T18:32:03.479Z,-18.54
2023-01-08T18:34:35.379Z,-18.49
2023-01-08T18:37:05.655Z,-18.53
2023-01-08T18:39:33.445Z,-18.59
2023-01-08T18:42:19.079Z,-18.69
2023-01-08T18:45:00.050Z,-18.70
2023-01-08T18:47:30.644Z,-18.58
2023-01-08T18:50:03.499Z,-18.73
2023-01-08T18:52:31.111Z,-18.85
2023-01-08T18:54:59.376Z,-18.89
2023-01-08T18:57:45.167Z,-18.87
2023-01-08T19:00:15.860Z,-18.89
2023-01-08T19:02:48.421Z,-18.94
2023-01-08T19:05:15.857Z,-18.99
2023-01-08T19:07:46.020Z,-18.98
2023-01-08T19:10:13.735Z,-19.09
2023-01-08T19:12:41.026Z,-19.02
2023-01-08T19:15:08.496Z,-19.00
2023-01-08T19:17:38.941Z,-19.10
2023-01-08T19:20:10.519Z,-18.99
2023-01-08T19:22:57.980Z,-18.93
2023-01-08T19:25:25.273Z,-18.90
2023-01-08T19:27:55.174Z,-19.05
2023-01-08T19:30:22.226Z,-19.01
2023-01-08T19:32:49.506Z,-19.06
2023-01-08T19:35:18.744Z,-19.07
2023-01-08T19:37:45.759Z,-18.96
2023-01-08T19:40:13.544Z,-19.02
2023-01-08T19:43:00.276Z,-19.13
2023-01-08T19:45:27.873Z,-19.14
2023-01-08T19:47:56.335Z,-19.16
2023-01-08T19:50:24.175Z,-19.20
2023-01-08T19:52:55.848Z,-19.31
2023-01-08T19:55:23.411Z,-19.40
2023-01-08T19:57:50.831Z,-19.31
2023-01-08T20:00:22.507Z,-19.34
2023-01-08T20:02:51.486Z,-19.40
2023-01-08T20:05:19.000Z,-19.38
2023-01-08T20:07:48.725Z,-19.39
2023-01-08T20:10:16.117Z,-19.39
2023-01-08T20:12:43.769Z,-19.42
2023-01-08T20:15:10.763Z,-19.45
2023-01-08T20:17:40.818Z,-19.49
2023-01-08T20:20:09.818Z,-19.46
2023-01-08T20:22:44.381Z,-19.46
2023-01-08T20:25:14.692Z,-19.58
2023-01-08T20:27:41.762Z,-19.59
2023-01-08T20:30:10.511Z,-19.58
2023-01-08T20:32:37.792Z,-19.52
2023-01-08T20:35:05.298Z,-19.42
2023-01-08T20:37:33.478Z,-19.35
2023-01-08T20:40:01.432Z,-19.27
2023-01-08T20:43:17.825Z,-19.07
2023-01-08T20:45:47.456Z,-18.87
2023-01-08T20:48:14.599Z,-18.69
2023-01-08T20:50:48.824Z,-18.50
2023-01-08T20:53:16.073Z,-18.31
2023-01-08T20:56:00.486Z,-18.15
2023-01-08T20:58:27.742Z,-18.15
2023-01-08T21:00:57.169Z,-18.10
2023-01-08T21:03:24.289Z,-18.08
2023-01-08T21:05:51.317Z,-18.03
2023-01-08T21:08:18.395Z,-18.01
2023-01-08T21:10:48.217Z,-17.92
2023-01-08T21:13:16.729Z,-17.77
2023-01-08T21:15:43.790Z,-17.65
2023-01-08T21:18:10.886Z,-17.59
2023-01-08T21:20:37.905Z,-17.60
2023-01-08T21:23:05.015Z,-17.61
2023-01-08T21:25:35.296Z,-17.58
2023-01-08T21:28:02.269Z,-17.61
2023-01-08T21:30:31.171Z,-17.61
2023-01-08T21:32:58.197Z,-17.56
2023-01-08T21:35:26.785Z,-17.51
2023-01-08T21:37:56.700Z,-17.49
2023-01-08T21:40:23.775Z,-17.54
2023-01-08T21:43:09.205Z,-17.54
2023-01-08T21:45:36.583Z,-17.56
2023-01-08T21:48:03.647Z,-17.56
2023-01-08T21:50:30.763Z,-17.56
2023-01-08T21:53:18.991Z,-17.61
2023-01-08T21:55:46.570Z,-17.54
2023-01-08T21:58:13.964Z,-17.51
2023-01-08T22:00:42.027Z,-17.51
2023-01-08T22:03:09.111Z,-17.50
2023-01-08T22:05:36.100Z,-17.42
2023-01-08T22:08:05.351Z,-17.39
2023-01-08T22:10:32.325Z,-17.28
2023-01-08T22:12:59.336Z,-17.20
2023-01-08T22:15:26.628Z,-17.20
2023-01-08T22:17:53.586Z,-17.19
2023-01-08T22:20:20.529Z,-17.15
2023-01-08T22:22:49.647Z,-17.07
2023-01-08T22:25:16.642Z,-17.06
2023-01-08T22:27:46.708Z,-17.08
2023-01-08T22:30:13.980Z,-17.04
2023-01-08T22:32:41.073Z,-17.13
2023-01-08T22:35:09.339Z,-17.11
2023-01-08T22:37:36.960Z,-17.12
2023-01-08T22:40:05.075Z,-17.10
2023-01-08T22:42:35.087Z,-17.05
2023-01-08T22:45:02.205Z,-17.10
2023-01-08T22:47:30.186Z,-17.03
2023-01-08T22:49:57.781Z,-16.95
2023-01-08T22:52:24.929Z,-16.87
2023-01-08T22:54:54.894Z,-16.85
2023-01-08T22:57:24.556Z,-16.83
2023-01-08T22:59:54.576Z,-16.81
2023-01-08T23:02:24.560Z,-16.79
2023-01-08T23:04:52.210Z,-16.74
2023-01-08T23:07:20.414Z,-16.76
2023-01-08T23:09:47.921Z,-16.82
2023-01-08T23:12:15.068Z,-16.87
2023-01-08T23:14:44.356Z,-16.91
2023-01-08T23:17:12.138Z,-16.94
2023-01-08T23:19:39.253Z,-17.02
2023-01-08T23:22:08.831Z,-17.10
2023-01-08T23:24:35.837Z,-17.20
2023-01-08T23:27:02.927Z,-17.33
2023-01-08T23:29:32.180Z,-17.43
2023-01-08T23:31:59.417Z,-17.57
2023-01-08T23:34:26.635Z,-17.62
2023-01-08T23:36:56.295Z,-17.70
2023-01-08T23:39:26.712Z,-17.78
2023-01-08T23:41:53.818Z,-17.81
2023-01-08T23:44:21.086Z,-17.84
2023-01-08T23:46:51.500Z,-17.87
2023-01-08T23:49:18.454Z,-17.90
2023-01-08T23:51:45.728Z,-17.96
2023-01-08T23:54:12.998Z,-17.93
2023-01-08T23:56:41.089Z,-17.96
2023-01-08T23:59:08.633Z,-17.93
